sensor_id;sensor_type;location;lat;lon;timestamp;temperature;humidity
3268;DHT22;1646;52.450;13.326;2022-08-21T00:02:54;21.20;99.90
3268;DHT22;1646;52.450;13.326;2022-08-21T00:07:55;21.20;99.90
3268;DHT22;1646;52.450;13.326;2022-08-21T00:12:53;21.10;99.90
3268;DHT22;1646;52.450;13.326;2022-08-21T00:17:52;21.10;99.90
3268;DHT22;1646;52.450;13.326;2022-08-21T00:22:50;21.10;99.90
3268;DHT22;1646;52.450;13.326;2022-08-21T00:27:50;21.10;99.90
3268;DHT22;1646;52.450;13.326;2022-08-21T00:32:48;21.00;99.90
3268;DHT22;1646;52.450;13.326;2022-08-21T00:37:46;21.00;99.90
3268;DHT22;1646;52.450;13.326;2022-08-21T00:42:45;21.00;99.90
3268;DHT22;1646;52.450;13.326;2022-08-21T00:47:51;20.90;99.90
3268;DHT22;1646;52.450;13.326;2022-08-21T00:52:51;20.90;99.90
3268;DHT22;1646;52.450;13.326;2022-08-21T00:57:52;20.80;99.90
3268;DHT22;1646;52.450;13.326;2022-08-21T01:02:53;20.70;99.90
3268;DHT22;1646;52.450;13.326;2022-08-21T01:07:51;20.60;99.90
3268;DHT22;1646;52.450;13.326;2022-08-21T01:12:51;20.60;99.90
3268;DHT22;1646;52.450;13.326;2022-08-21T01:17:50;20.60;99.90
3268;DHT22;1646;52.450;13.326;2022-08-21T01:22:50;20.60;99.90
3268;DHT22;1646;52.450;13.326;2022-08-21T01:27:49;20.60;99.90
3268;DHT22;1646;52.450;13.326;2022-08-21T01:32:47;20.60;99.90
3268;DHT22;1646;52.450;13.326;2022-08-21T01:37:46;20.60;99.90
3268;DHT22;1646;52.450;13.326;2022-08-21T01:42:47;20.50;99.90
3268;DHT22;1646;52.450;13.326;2022-08-21T01:47:45;20.50;99.90
3268;DHT22;1646;52.450;13.326;2022-08-21T01:52:44;20.50;99.90
3268;DHT22;1646;52.450;13.326;2022-08-21T01:57:42;20.50;99.90
3268;DHT22;1646;52.450;13.326;2022-08-21T02:02:42;20.50;99.90
3268;DHT22;1646;52.450;13.326;2022-08-21T02:07:43;20.40;99.90
3268;DHT22;1646;52.450;13.326;2022-08-21T02:12:42;20.30;99.90
3268;DHT22;1646;52.450;13.326;2022-08-21T02:17:44;20.30;99.90
3268;DHT22;1646;52.450;13.326;2022-08-21T02:22:43;20.30;99.90
3268;DHT22;1646;52.450;13.326;2022-08-21T02:27:43;20.20;99.90
3268;DHT22;1646;52.450;13.326;2022-08-21T02:32:44;20.10;99.90
3268;DHT22;1646;52.450;13.326;2022-08-21T02:37:44;20.10;99.90
3268;DHT22;1646;52.450;13.326;2022-08-21T02:42:43;20.10;99.90
3268;DHT22;1646;52.450;13.326;2022-08-21T02:47:48;20.00;99.90
3268;DHT22;1646;52.450;13.326;2022-08-21T02:52:47;19.90;99.90
3268;DHT22;1646;52.450;13.326;2022-08-21T02:57:52;19.80;99.90
3268;DHT22;1646;52.450;13.326;2022-08-21T03:02:51;19.80;99.90
3268;DHT22;1646;52.450;13.326;2022-08-21T03:07:50;19.70;99.90
3268;DHT22;1646;52.450;13.326;2022-08-21T03:12:49;19.70;99.90
3268;DHT22;1646;52.450;13.326;2022-08-21T03:17:47;19.60;99.90
3268;DHT22;1646;52.450;13.326;2022-08-21T03:22:47;19.60;99.90
3268;DHT22;1646;52.450;13.326;2022-08-21T03:27:49;19.50;99.90
3268;DHT22;1646;52.450;13.326;2022-08-21T03:32:53;19.50;99.90
3268;DHT22;1646;52.450;13.326;2022-08-21T03:37:54;19.50;99.90
3268;DHT22;1646;52.450;13.326;2022-08-21T03:42:52;19.50;99.90
3268;DHT22;1646;52.450;13.326;2022-08-21T03:47:54;19.40;99.90
3268;DHT22;1646;52.450;13.326;2022-08-21T03:52:55;19.40;99.90
3268;DHT22;1646;52.450;13.326;2022-08-21T03:57:53;19.30;99.90
3268;DHT22;1646;52.450;13.326;2022-08-21T04:02:52;19.20;99.90
3268;DHT22;1646;52.450;13.326;2022-08-21T04:07:50;19.10;99.90
3268;DHT22;1646;52.450;13.326;2022-08-21T04:12:50;19.10;99.90
3268;DHT22;1646;52.450;13.326;2022-08-21T04:17:48;19.00;99.90
3268;DHT22;1646;52.450;13.326;2022-08-21T04:22:47;19.00;99.90
3268;DHT22;1646;52.450;13.326;2022-08-21T04:27:45;19.00;99.90
3268;DHT22;1646;52.450;13.326;2022-08-21T04:32:45;19.00;99.90
3268;DHT22;1646;52.450;13.326;2022-08-21T04:37:45;18.90;99.90
3268;DHT22;1646;52.450;13.326;2022-08-21T04:42:45;18.90;99.90
3268;DHT22;1646;52.450;13.326;2022-08-21T04:47:48;18.90;99.90
3268;DHT22;1646;52.450;13.326;2022-08-21T04:52:49;18.90;99.90
3268;DHT22;1646;52.450;13.326;2022-08-21T04:57:47;18.90;99.90
3268;DHT22;1646;52.450;13.326;2022-08-21T05:02:49;18.90;99.90
3268;DHT22;1646;52.450;13.326;2022-08-21T05:07:51;19.00;99.90
3268;DHT22;1646;52.450;13.326;2022-08-21T05:12:50;19.00;99.90
3268;DHT22;1646;52.450;13.326;2022-08-21T05:17:50;19.00;99.90
3268;DHT22;1646;52.450;13.326;2022-08-21T05:22:57;19.10;99.90
3268;DHT22;1646;52.450;13.326;2022-08-21T05:27:55;19.10;99.90
3268;DHT22;1646;52.450;13.326;2022-08-21T05:32:59;19.10;99.90
3268;DHT22;1646;52.450;13.326;2022-08-21T05:37:57;19.10;99.90
3268;DHT22;1646;52.450;13.326;2022-08-21T05:42:56;19.10;99.90
3268;DHT22;1646;52.450;13.326;2022-08-21T05:47:56;19.00;99.90
3268;DHT22;1646;52.450;13.326;2022-08-21T05:52:55;18.90;99.90
3268;DHT22;1646;52.450;13.326;2022-08-21T05:58:02;19.00;99.90
3268;DHT22;1646;52.450;13.326;2022-08-21T06:03:01;19.00;99.90
3268;DHT22;1646;52.450;13.326;2022-08-21T06:08:00;18.90;99.90
3268;DHT22;1646;52.450;13.326;2022-08-21T06:12:58;18.80;99.90
3268;DHT22;1646;52.450;13.326;2022-08-21T06:17:56;18.90;99.90
3268;DHT22;1646;52.450;13.326;2022-08-21T06:22:55;19.00;99.90
3268;DHT22;1646;52.450;13.326;2022-08-21T06:28:00;19.10;99.90
3268;DHT22;1646;52.450;13.326;2022-08-21T06:32:58;19.20;99.90
3268;DHT22;1646;52.450;13.326;2022-08-21T06:37:57;19.40;99.90
3268;DHT22;1646;52.450;13.326;2022-08-21T06:42:56;19.60;99.90
3268;DHT22;1646;52.450;13.326;2022-08-21T06:47:57;19.70;99.90
3268;DHT22;1646;52.450;13.326;2022-08-21T06:52:59;19.70;99.90
3268;DHT22;1646;52.450;13.326;2022-08-21T06:57:59;19.80;99.90
3268;DHT22;1646;52.450;13.326;2022-08-21T07:02:57;19.90;99.90
3268;DHT22;1646;52.450;13.326;2022-08-21T07:07:56;20.10;99.90
3268;DHT22;1646;52.450;13.326;2022-08-21T07:12:55;20.30;99.90
3268;DHT22;1646;52.450;13.326;2022-08-21T07:17:59;20.40;99.90
3268;DHT22;1646;52.450;13.326;2022-08-21T07:23:01;20.40;99.90
3268;DHT22;1646;52.450;13.326;2022-08-21T07:27:59;20.50;99.90
3268;DHT22;1646;52.450;13.326;2022-08-21T07:32:59;20.70;99.90
3268;DHT22;1646;52.450;13.326;2022-08-21T07:37:57;20.80;99.90
3268;DHT22;1646;52.450;13.326;2022-08-21T07:42:55;21.10;99.90
3268;DHT22;1646;52.450;13.326;2022-08-21T07:47:53;21.20;99.90
3268;DHT22;1646;52.450;13.326;2022-08-21T07:52:54;21.60;99.90
3268;DHT22;1646;52.450;13.326;2022-08-21T07:57:53;21.90;99.90
3268;DHT22;1646;52.450;13.326;2022-08-21T08:02:52;21.90;99.90
3268;DHT22;1646;52.450;13.326;2022-08-21T08:07:51;21.90;99.90
3268;DHT22;1646;52.450;13.326;2022-08-21T08:12:51;22.10;99.90
3268;DHT22;1646;52.450;13.326;2022-08-21T08:17:51;22.20;99.90
3268;DHT22;1646;52.450;13.326;2022-08-21T08:22:49;22.60;99.90
3268;DHT22;1646;52.450;13.326;2022-08-21T08:27:48;23.00;99.90
3268;DHT22;1646;52.450;13.326;2022-08-21T08:32:47;23.20;99.90
3268;DHT22;1646;52.450;13.326;2022-08-21T08:37:46;23.00;99.90
3268;DHT22;1646;52.450;13.326;2022-08-21T08:42:48;22.90;99.90
3268;DHT22;1646;52.450;13.326;2022-08-21T08:47:52;22.90;99.90
3268;DHT22;1646;52.450;13.326;2022-08-21T08:52:59;22.80;99.90
3268;DHT22;1646;52.450;13.326;2022-08-21T08:58:00;22.70;99.90
3268;DHT22;1646;52.450;13.326;2022-08-21T09:03:02;22.90;99.90
3268;DHT22;1646;52.450;13.326;2022-08-21T09:08:27;23.10;99.90
3268;DHT22;1646;52.450;13.326;2022-08-21T09:13:36;23.20;99.90
3268;DHT22;1646;52.450;13.326;2022-08-21T09:18:50;23.40;99.90
3268;DHT22;1646;52.450;13.326;2022-08-21T09:23:57;23.50;99.90
3268;DHT22;1646;52.450;13.326;2022-08-21T09:28:59;23.70;99.90
3268;DHT22;1646;52.450;13.326;2022-08-21T09:34:00;23.60;99.90
3268;DHT22;1646;52.450;13.326;2022-08-21T09:38:58;23.60;99.90
3268;DHT22;1646;52.450;13.326;2022-08-21T09:43:57;23.70;99.90
3268;DHT22;1646;52.450;13.326;2022-08-21T09:48:57;23.90;99.90
3268;DHT22;1646;52.450;13.326;2022-08-21T09:54:12;24.20;99.90
3268;DHT22;1646;52.450;13.326;2022-08-21T09:59:24;24.60;99.90
3268;DHT22;1646;52.450;13.326;2022-08-21T10:04:28;24.90;99.90
3268;DHT22;1646;52.450;13.326;2022-08-21T10:09:28;25.00;99.90
3268;DHT22;1646;52.450;13.326;2022-08-21T10:14:38;25.50;99.90
3268;DHT22;1646;52.450;13.326;2022-08-21T10:19:43;26.30;99.90
3268;DHT22;1646;52.450;13.326;2022-08-21T10:24:52;26.60;99.90
3268;DHT22;1646;52.450;13.326;2022-08-21T10:29:59;26.80;99.90
3268;DHT22;1646;52.450;13.326;2022-08-21T10:35:06;26.90;99.90
3268;DHT22;1646;52.450;13.326;2022-08-21T10:40:17;26.70;98.60
3268;DHT22;1646;52.450;13.326;2022-08-21T10:45:25;26.20;98.90
3268;DHT22;1646;52.450;13.326;2022-08-21T10:50:31;26.20;96.50
3268;DHT22;1646;52.450;13.326;2022-08-21T10:55:37;26.50;96.70
3268;DHT22;1646;52.450;13.326;2022-08-21T11:00:41;26.90;96.50
3268;DHT22;1646;52.450;13.326;2022-08-21T11:05:46;27.60;95.80
3268;DHT22;1646;52.450;13.326;2022-08-21T11:10:50;28.20;94.40
3268;DHT22;1646;52.450;13.326;2022-08-21T11:15:59;28.40;90.80
3268;DHT22;1646;52.450;13.326;2022-08-21T11:21:19;28.50;92.20
3268;DHT22;1646;52.450;13.326;2022-08-21T11:26:23;28.60;92.00
3268;DHT22;1646;52.450;13.326;2022-08-21T11:31:33;28.60;86.70
3268;DHT22;1646;52.450;13.326;2022-08-21T11:36:38;28.20;87.60
3268;DHT22;1646;52.450;13.326;2022-08-21T11:41:49;28.30;86.10
3268;DHT22;1646;52.450;13.326;2022-08-21T11:46:59;28.20;86.90
3268;DHT22;1646;52.450;13.326;2022-08-21T11:52:07;28.20;84.30
3268;DHT22;1646;52.450;13.326;2022-08-21T11:57:14;28.30;83.50
3268;DHT22;1646;52.450;13.326;2022-08-21T12:02:18;28.20;80.30
3268;DHT22;1646;52.450;13.326;2022-08-21T12:07:29;28.30;82.50
3268;DHT22;1646;52.450;13.326;2022-08-21T12:12:31;28.80;81.10
3268;DHT22;1646;52.450;13.326;2022-08-21T12:17:35;28.80;77.30
3268;DHT22;1646;52.450;13.326;2022-08-21T12:22:39;28.70;79.80
3268;DHT22;1646;52.450;13.326;2022-08-21T12:27:46;28.90;75.10
3268;DHT22;1646;52.450;13.326;2022-08-21T12:32:46;29.10;79.00
3268;DHT22;1646;52.450;13.326;2022-08-21T12:37:57;29.40;72.40
3268;DHT22;1646;52.450;13.326;2022-08-21T12:42:59;29.30;74.30
3268;DHT22;1646;52.450;13.326;2022-08-21T12:48:03;29.30;73.50
3268;DHT22;1646;52.450;13.326;2022-08-21T12:53:07;29.30;75.70
3268;DHT22;1646;52.450;13.326;2022-08-21T12:58:19;29.50;74.80
3268;DHT22;1646;52.450;13.326;2022-08-21T13:03:17;29.30;73.50
3268;DHT22;1646;52.450;13.326;2022-08-21T13:08:17;29.10;77.10
3268;DHT22;1646;52.450;13.326;2022-08-21T13:13:21;29.20;77.40
3268;DHT22;1646;52.450;13.326;2022-08-21T13:18:29;29.10;76.40
3268;DHT22;1646;52.450;13.326;2022-08-21T13:23:29;28.70;76.60
3268;DHT22;1646;52.450;13.326;2022-08-21T13:28:34;28.30;77.40
3268;DHT22;1646;52.450;13.326;2022-08-21T13:33:34;27.80;81.70
3268;DHT22;1646;52.450;13.326;2022-08-21T13:38:35;27.70;82.50
3268;DHT22;1646;52.450;13.326;2022-08-21T13:43:36;28.30;82.00
3268;DHT22;1646;52.450;13.326;2022-08-21T13:48:36;28.80;79.10
3268;DHT22;1646;52.450;13.326;2022-08-21T13:53:36;29.10;79.70
3268;DHT22;1646;52.450;13.326;2022-08-21T13:58:45;28.30;79.30
3268;DHT22;1646;52.450;13.326;2022-08-21T14:03:45;28.00;81.60
3268;DHT22;1646;52.450;13.326;2022-08-21T14:08:50;27.90;79.40
3268;DHT22;1646;52.450;13.326;2022-08-21T14:13:56;27.60;80.50
3268;DHT22;1646;52.450;13.326;2022-08-21T14:19:09;27.30;82.10
3268;DHT22;1646;52.450;13.326;2022-08-21T14:24:10;27.30;83.00
3268;DHT22;1646;52.450;13.326;2022-08-21T14:29:11;27.80;82.80
3268;DHT22;1646;52.450;13.326;2022-08-21T14:34:12;28.00;83.40
3268;DHT22;1646;52.450;13.326;2022-08-21T14:39:15;27.90;84.30
3268;DHT22;1646;52.450;13.326;2022-08-21T14:44:16;27.70;81.70
3268;DHT22;1646;52.450;13.326;2022-08-21T14:49:14;27.50;80.80
3268;DHT22;1646;52.450;13.326;2022-08-21T14:54:13;27.20;82.00
3268;DHT22;1646;52.450;13.326;2022-08-21T14:59:11;27.10;81.40
3268;DHT22;1646;52.450;13.326;2022-08-21T15:04:10;26.90;80.20
3268;DHT22;1646;52.450;13.326;2022-08-21T15:09:08;26.90;83.10
3268;DHT22;1646;52.450;13.326;2022-08-21T15:14:08;26.80;82.90
3268;DHT22;1646;52.450;13.326;2022-08-21T15:19:06;26.60;83.60
3268;DHT22;1646;52.450;13.326;2022-08-21T15:24:06;26.80;86.20
3268;DHT22;1646;52.450;13.326;2022-08-21T15:29:06;27.00;85.30
3268;DHT22;1646;52.450;13.326;2022-08-21T15:34:04;26.90;85.10
3268;DHT22;1646;52.450;13.326;2022-08-21T15:39:02;26.70;84.10
3268;DHT22;1646;52.450;13.326;2022-08-21T15:44:02;26.40;82.80
3268;DHT22;1646;52.450;13.326;2022-08-21T15:49:00;26.40;86.40
3268;DHT22;1646;52.450;13.326;2022-08-21T15:53:58;26.70;86.80
3268;DHT22;1646;52.450;13.326;2022-08-21T15:59:00;27.10;84.80
3268;DHT22;1646;52.450;13.326;2022-08-21T16:03:59;27.20;85.50
3268;DHT22;1646;52.450;13.326;2022-08-21T16:08:58;27.00;83.60
3268;DHT22;1646;52.450;13.326;2022-08-21T16:13:56;26.70;86.20
3268;DHT22;1646;52.450;13.326;2022-08-21T16:18:54;26.60;87.90
3268;DHT22;1646;52.450;13.326;2022-08-21T16:23:54;26.60;87.70
3268;DHT22;1646;52.450;13.326;2022-08-21T16:28:54;26.60;88.80
3268;DHT22;1646;52.450;13.326;2022-08-21T16:33:55;26.50;88.30
3268;DHT22;1646;52.450;13.326;2022-08-21T16:38:57;26.50;90.50
3268;DHT22;1646;52.450;13.326;2022-08-21T16:43:55;26.50;90.50
3268;DHT22;1646;52.450;13.326;2022-08-21T16:48:54;26.50;90.60
3268;DHT22;1646;52.450;13.326;2022-08-21T16:53:52;26.70;90.50
3268;DHT22;1646;52.450;13.326;2022-08-21T16:58:53;27.00;89.30
3268;DHT22;1646;52.450;13.326;2022-08-21T17:03:51;27.20;87.00
3268;DHT22;1646;52.450;13.326;2022-08-21T17:08:52;27.30;87.20
3268;DHT22;1646;52.450;13.326;2022-08-21T17:13:51;27.30;86.00
3268;DHT22;1646;52.450;13.326;2022-08-21T17:18:49;27.30;86.70
3268;DHT22;1646;52.450;13.326;2022-08-21T17:23:51;27.30;87.60
3268;DHT22;1646;52.450;13.326;2022-08-21T17:28:50;27.10;88.20
3268;DHT22;1646;52.450;13.326;2022-08-21T17:33:52;26.90;88.90
3268;DHT22;1646;52.450;13.326;2022-08-21T17:38:52;26.70;89.70
3268;DHT22;1646;52.450;13.326;2022-08-21T17:43:53;26.50;90.00
3268;DHT22;1646;52.450;13.326;2022-08-21T17:48:51;26.20;90.20
3268;DHT22;1646;52.450;13.326;2022-08-21T17:53:50;26.00;90.90
3268;DHT22;1646;52.450;13.326;2022-08-21T17:58:50;25.80;90.70
3268;DHT22;1646;52.450;13.326;2022-08-21T18:03:49;25.50;91.30
3268;DHT22;1646;52.450;13.326;2022-08-21T18:08:47;25.30;91.10
3268;DHT22;1646;52.450;13.326;2022-08-21T18:13:45;25.10;91.10
3268;DHT22;1646;52.450;13.326;2022-08-21T18:18:45;24.90;91.50
3268;DHT22;1646;52.450;13.326;2022-08-21T18:23:46;24.70;91.90
3268;DHT22;1646;52.450;13.326;2022-08-21T18:28:44;24.50;92.10
3268;DHT22;1646;52.450;13.326;2022-08-21T18:33:42;24.30;92.40
3268;DHT22;1646;52.450;13.326;2022-08-21T18:38:56;24.10;93.10
3268;DHT22;1646;52.450;13.326;2022-08-21T18:44:16;23.90;93.50
3268;DHT22;1646;52.450;13.326;2022-08-21T18:49:14;23.70;93.90
3268;DHT22;1646;52.450;13.326;2022-08-21T18:54:15;23.50;94.50
3268;DHT22;1646;52.450;13.326;2022-08-21T18:59:14;23.40;94.90
3268;DHT22;1646;52.450;13.326;2022-08-21T19:04:13;23.20;96.00
3268;DHT22;1646;52.450;13.326;2022-08-21T19:09:32;23.10;96.40
3268;DHT22;1646;52.450;13.326;2022-08-21T19:14:30;23.00;97.10
3268;DHT22;1646;52.450;13.326;2022-08-21T19:19:29;22.80;97.40
3268;DHT22;1646;52.450;13.326;2022-08-21T19:24:28;22.70;98.10
3268;DHT22;1646;52.450;13.326;2022-08-21T19:29:28;22.60;98.70
3268;DHT22;1646;52.450;13.326;2022-08-21T19:34:46;22.50;99.00
3268;DHT22;1646;52.450;13.326;2022-08-21T19:39:46;22.40;99.80
3268;DHT22;1646;52.450;13.326;2022-08-21T19:44:47;22.30;99.90
3268;DHT22;1646;52.450;13.326;2022-08-21T19:49:56;22.20;99.90
3268;DHT22;1646;52.450;13.326;2022-08-21T19:54:54;22.00;99.90
3268;DHT22;1646;52.450;13.326;2022-08-21T19:59:54;22.00;99.90
3268;DHT22;1646;52.450;13.326;2022-08-21T20:04:52;21.80;99.90
3268;DHT22;1646;52.450;13.326;2022-08-21T20:09:50;21.70;99.90
3268;DHT22;1646;52.450;13.326;2022-08-21T20:14:49;21.60;99.90
3268;DHT22;1646;52.450;13.326;2022-08-21T20:19:49;21.60;99.90
3268;DHT22;1646;52.450;13.326;2022-08-21T20:24:50;21.50;99.90
3268;DHT22;1646;52.450;13.326;2022-08-21T20:29:51;21.40;99.90
3268;DHT22;1646;52.450;13.326;2022-08-21T20:34:50;21.30;99.90
3268;DHT22;1646;52.450;13.326;2022-08-21T20:40:11;21.30;99.90
3268;DHT22;1646;52.450;13.326;2022-08-21T20:45:10;21.30;99.90
3268;DHT22;1646;52.450;13.326;2022-08-21T20:50:12;21.20;99.90
3268;DHT22;1646;52.450;13.326;2022-08-21T20:55:15;21.10;99.90
3268;DHT22;1646;52.450;13.326;2022-08-21T21:00:26;21.10;99.90
3268;DHT22;1646;52.450;13.326;2022-08-21T21:05:28;21.00;99.90
3268;DHT22;1646;52.450;13.326;2022-08-21T21:10:31;20.90;99.90
3268;DHT22;1646;52.450;13.326;2022-08-21T21:15:32;20.90;99.90
3268;DHT22;1646;52.450;13.326;2022-08-21T21:20:37;20.80;99.90
3268;DHT22;1646;52.450;13.326;2022-08-21T21:25:47;20.80;99.90
3268;DHT22;1646;52.450;13.326;2022-08-21T21:30:50;20.70;99.90
3268;DHT22;1646;52.450;13.326;2022-08-21T21:35:58;20.70;99.90
3268;DHT22;1646;52.450;13.326;2022-08-21T21:41:07;20.60;99.90
3268;DHT22;1646;52.450;13.326;2022-08-21T21:46:20;20.60;99.90
3268;DHT22;1646;52.450;13.326;2022-08-21T21:51:31;20.50;99.90
3268;DHT22;1646;52.450;13.326;2022-08-21T21:56:41;20.40;99.90
3268;DHT22;1646;52.450;13.326;2022-08-21T22:01:49;20.30;99.90
3268;DHT22;1646;52.450;13.326;2022-08-21T22:06:55;20.30;99.90
3268;DHT22;1646;52.450;13.326;2022-08-21T22:12:02;20.30;99.90
3268;DHT22;1646;52.450;13.326;2022-08-21T22:17:08;20.20;99.90
3268;DHT22;1646;52.450;13.326;2022-08-21T22:22:16;20.20;99.90
3268;DHT22;1646;52.450;13.326;2022-08-21T22:27:18;20.10;99.90
3268;DHT22;1646;52.450;13.326;2022-08-21T22:32:24;20.10;99.90
3268;DHT22;1646;52.450;13.326;2022-08-21T22:37:33;20.00;99.90
3268;DHT22;1646;52.450;13.326;2022-08-21T22:42:32;19.90;99.90
3268;DHT22;1646;52.450;13.326;2022-08-21T22:47:32;19.90;99.90
3268;DHT22;1646;52.450;13.326;2022-08-21T22:52:35;19.80;99.90
3268;DHT22;1646;52.450;13.326;2022-08-21T22:57:34;19.80;99.90
3268;DHT22;1646;52.450;13.326;2022-08-21T23:02:38;19.80;99.90
3268;DHT22;1646;52.450;13.326;2022-08-21T23:07:42;19.80;99.90
3268;DHT22;1646;52.450;13.326;2022-08-21T23:13:04;19.70;99.90
3268;DHT22;1646;52.450;13.326;2022-08-21T23:18:10;19.60;99.90
3268;DHT22;1646;52.450;13.326;2022-08-21T23:23:16;19.60;99.90
3268;DHT22;1646;52.450;13.326;2022-08-21T23:28:26;19.60;99.90
3268;DHT22;1646;52.450;13.326;2022-08-21T23:33:39;19.60;99.90
3268;DHT22;1646;52.450;13.326;2022-08-21T23:38:52;19.60;99.90
3268;DHT22;1646;52.450;13.326;2022-08-21T23:44:01;19.50;99.90
3268;DHT22;1646;52.450;13.326;2022-08-21T23:49:10;19.50;99.90
3268;DHT22;1646;52.450;13.326;2022-08-21T23:54:18;19.40;99.90
3268;DHT22;1646;52.450;13.326;2022-08-21T23:59:25;19.40;99.90
